Time;durP1;ratioP1;P1;durP2;ratioP2;P2;SDS_P1;SDS_P2;PMS_P1;PMS_P2;Temp;Humidity;BMP_temperature;BMP_pressure;BME280_temperature;BME280_humidity;BME280_pressure;Samples;Min_cycle;Max_cycle;Signal;HPM_P1;HPM_P2
2023/05/09 00:00:52;;;;;;;68.25;34.30;;;;;;;-144.85;100.00;61331.59;5065018;28;31094;-82
2023/05/09 00:03:19;;;;;;;71.82;34.38;;;;;;;-144.85;100.00;61331.59;5060252;28;31965;-81
2023/05/09 00:05:47;;;;;;;65.55;34.25;;;;;;;-144.85;100.00;61331.59;5060334;28;31532;-81
2023/05/09 00:08:14;;;;;;;68.82;34.95;;;;;;;-144.85;100.00;61331.59;5078068;28;31435;-82
2023/05/09 00:10:41;;;;;;;66.28;33.95;;;;;;;-144.85;100.00;61331.59;5057929;28;32428;-82
2023/05/09 00:13:08;;;;;;;61.47;32.40;;;;;;;-144.85;100.00;61331.59;5075684;28;32680;-81
2023/05/09 00:15:35;;;;;;;64.35;33.08;;;;;;;-144.85;100.00;61331.59;5060064;28;31806;-82
2023/05/09 00:18:02;;;;;;;66.63;33.97;;;;;;;-144.85;100.00;61331.59;5060081;28;31987;-82
2023/05/09 00:20:32;;;;;;;61.35;32.33;;;;;;;-144.85;100.00;61331.59;5057806;28;32708;-81
2023/05/09 00:22:59;;;;;;;63.47;32.08;;;;;;;-144.85;100.00;61331.59;5058724;28;31203;-80
2023/05/09 00:25:27;;;;;;;65.18;34.28;;;;;;;-144.85;100.00;61331.59;5042337;28;32167;-82
2023/05/09 00:27:54;;;;;;;70.03;34.17;;;;;;;-144.85;100.00;61331.59;5076251;28;31669;-81
2023/05/09 00:30:21;;;;;;;67.20;34.08;;;;;;;-144.85;100.00;61331.59;5042861;28;31312;-83
2023/05/09 00:32:48;;;;;;;67.90;33.63;;;;;;;-144.85;100.00;61331.59;5059928;28;31453;-81
2023/05/09 00:35:15;;;;;;;70.68;33.72;;;;;;;-144.85;100.00;61331.59;5069685;28;30977;-82
2023/05/09 00:37:43;;;;;;;67.90;32.58;;;;;;;-144.85;100.00;61331.59;5060188;28;31803;-80
2023/05/09 00:40:10;;;;;;;64.68;32.97;;;;;;;-144.85;100.00;61331.59;5057614;28;33398;-82
2023/05/09 00:42:38;;;;;;;67.80;33.72;;;;;;;-144.85;100.00;61331.59;5058300;28;30900;-82
2023/05/09 00:45:06;;;;;;;65.10;34.72;;;;;;;-144.85;100.00;61331.59;5077911;28;31750;-83
2023/05/09 00:47:33;;;;;;;63.55;34.05;;;;;;;-144.85;100.00;61331.59;5073829;28;30371;-81
2023/05/09 00:50:01;;;;;;;70.45;34.42;;;;;;;-144.85;100.00;61331.59;5059347;28;31029;-81
2023/05/09 00:52:29;;;;;;;71.72;35.00;;;;;;;-144.85;100.00;61331.59;5040564;28;29978;-80
2023/05/09 00:54:57;;;;;;;74.57;34.50;;;;;;;-144.85;100.00;61331.59;5059889;28;32892;-81
2023/05/09 00:57:24;;;;;;;70.10;35.03;;;;;;;-144.85;100.00;61331.59;5043203;28;33423;-82
2023/05/09 00:59:51;;;;;;;68.70;34.83;;;;;;;-144.85;100.00;61331.59;5076241;28;32597;-82
2023/05/09 01:02:19;;;;;;;62.55;33.30;;;;;;;-144.85;100.00;61331.59;5077766;28;31881;-82
2023/05/09 01:04:47;;;;;;;73.85;35.25;;;;;;;-144.85;100.00;61331.59;5059130;28;31260;-82
2023/05/09 01:07:39;;;;;;;67.38;34.67;;;;;;;-144.85;100.00;61331.59;5061629;28;30848;-81
2023/05/09 01:10:22;;;;;;;68.90;34.42;;;;;;;-144.85;100.00;61331.59;5078716;28;31586;-81
2023/05/09 01:13:22;;;;;;;68.53;34.75;;;;;;;-144.85;100.00;61331.59;5064152;28;33223;-80
2023/05/09 01:16:30;;;;;;;66.05;33.50;;;;;;;-144.85;100.00;61331.59;5083114;28;30889;-81
2023/05/09 01:19:32;;;;;;;64.53;33.40;;;;;;;-144.85;100.00;61331.59;4984213;28;31395;-82
2023/05/09 01:22:03;;;;;;;66.60;33.38;;;;;;;-144.85;100.00;61331.59;5078066;28;32610;-81
2023/05/09 01:24:56;;;;;;;67.57;34.63;;;;;;;-144.85;100.00;61331.59;5050020;28;31097;-80
2023/05/09 01:28:06;;;;;;;64.72;33.85;;;;;;;-144.85;100.00;61331.59;5065853;28;32201;-80
2023/05/09 01:30:36;;;;;;;67.35;33.05;;;;;;;-144.85;100.00;61331.59;5066890;28;31367;-79
2023/05/09 01:33:06;;;;;;;64.95;33.38;;;;;;;-144.85;100.00;61331.59;5049508;28;31391;-81
2023/05/09 01:35:36;;;;;;;63.50;33.72;;;;;;;-144.85;100.00;61331.59;5077595;28;31328;-82
2023/05/09 01:38:10;;;;;;;65.38;33.78;;;;;;;-144.85;100.00;61331.59;5065598;28;30805;-82
2023/05/09 01:40:40;;;;;;;61.45;32.95;;;;;;;-144.85;100.00;61331.59;5084525;28;31804;-83
2023/05/09 01:43:10;;;;;;;67.93;34.03;;;;;;;-144.85;100.00;61331.59;5069560;28;31783;-80
2023/05/09 01:45:39;;;;;;;65.07;33.92;;;;;;;-144.85;100.00;61331.59;5063972;28;31345;-80
2023/05/09 01:48:08;;;;;;;73.53;34.58;;;;;;;-144.85;100.00;61331.59;5084803;28;32982;-80
2023/05/09 01:50:37;;;;;;;66.90;33.60;;;;;;;-144.85;100.00;61331.59;5066308;28;31128;-80
2023/05/09 01:53:05;;;;;;;63.88;32.72;;;;;;;-144.85;100.00;61331.59;5047215;28;32978;-80
2023/05/09 01:55:36;;;;;;;64.32;33.00;;;;;;;-144.85;100.00;61331.59;5066250;28;32015;-80
2023/05/09 01:58:04;;;;;;;70.72;34.03;;;;;;;-144.85;100.00;61331.59;5065677;28;30985;-81
2023/05/09 02:00:33;;;;;;;66.30;33.85;;;;;;;-144.85;100.00;61331.59;5067609;28;31373;-82
2023/05/09 02:03:02;;;;;;;68.22;34.80;;;;;;;-144.85;100.00;61331.59;5066550;28;31880;-81
2023/05/09 02:05:31;;;;;;;63.83;33.10;;;;;;;-144.85;100.00;61331.59;5050457;28;30963;-80
2023/05/09 02:07:58;;;;;;;63.42;32.03;;;;;;;-144.85;100.00;61331.59;5049338;28;30756;-80
2023/05/09 02:10:27;;;;;;;59.28;31.63;;;;;;;-144.85;100.00;61331.59;5065952;28;30725;-81
2023/05/09 02:12:56;;;;;;;60.35;31.50;;;;;;;-144.85;100.00;61331.59;5066592;28;31674;-80
2023/05/09 02:15:24;;;;;;;58.65;31.02;;;;;;;-144.85;100.00;61331.59;5066694;28;32151;-82
2023/05/09 02:17:52;;;;;;;58.92;31.05;;;;;;;-144.85;100.00;61331.59;5065858;28;30747;-82
2023/05/09 02:20:19;;;;;;;61.38;31.13;;;;;;;-144.85;100.00;61331.59;5055083;28;30936;-81
2023/05/09 02:22:46;;;;;;;55.88;30.58;;;;;;;-144.85;100.00;61331.59;5060915;28;31169;-79
2023/05/09 02:25:14;;;;;;;53.97;29.95;;;;;;;-144.85;100.00;61331.59;5063171;28;31306;-80
2023/05/09 02:27:44;;;;;;;56.55;29.75;;;;;;;-144.85;100.00;61331.59;5060333;28;33261;-80
2023/05/09 02:30:17;;;;;;;58.53;29.75;;;;;;;-144.85;100.00;61331.59;5081220;28;31520;-81
2023/05/09 02:32:47;;;;;;;53.65;30.90;;;;;;;-144.85;100.00;61331.59;5051832;28;32537;-79
2023/05/09 02:35:16;;;;;;;55.75;29.38;;;;;;;-144.85;100.00;61331.59;5061589;28;31128;-82
2023/05/09 02:37:46;;;;;;;51.38;28.27;;;;;;;-144.85;100.00;61331.59;5062516;28;31695;-80
2023/05/09 02:40:13;;;;;;;53.80;28.77;;;;;;;-144.85;100.00;61331.59;5046694;28;30693;-82
2023/05/09 02:42:40;;;;;;;50.55;28.35;;;;;;;-144.85;100.00;61331.59;5078060;28;33422;-82
2023/05/09 02:45:09;;;;;;;51.45;28.45;;;;;;;-144.85;100.00;61331.59;5063586;28;31677;-83
2023/05/09 02:47:37;;;;;;;51.42;28.30;;;;;;;-144.85;100.00;61331.59;5046106;28;31153;-81
2023/05/09 02:50:05;;;;;;;53.78;28.38;;;;;;;-144.85;100.00;61331.59;5063855;28;30824;-84
2023/05/09 02:52:35;;;;;;;51.25;27.30;;;;;;;-144.85;100.00;61331.59;5071369;28;31467;-83
2023/05/09 02:55:03;;;;;;;54.05;29.02;;;;;;;-144.85;100.00;61331.59;5062866;28;31381;-82
2023/05/09 02:57:33;;;;;;;55.70;29.05;;;;;;;-144.85;100.00;61331.59;5060870;28;31088;-81
2023/05/09 03:00:00;;;;;;;51.63;28.10;;;;;;;-144.85;100.00;61331.59;5073790;28;31327;-82
2023/05/09 03:02:28;;;;;;;48.38;27.65;;;;;;;-144.85;100.00;61331.59;5071625;28;33173;-82
2023/05/09 03:04:57;;;;;;;54.67;28.95;;;;;;;-144.85;100.00;61331.59;5078235;28;31456;-82
2023/05/09 03:07:24;;;;;;;55.08;28.20;;;;;;;-144.85;100.00;61331.59;5063238;28;31696;-83
2023/05/09 03:09:51;;;;;;;53.88;28.55;;;;;;;-144.85;100.00;61331.59;5061970;28;31122;-82
2023/05/09 03:12:18;;;;;;;53.55;28.63;;;;;;;-144.85;100.00;61331.59;5061847;28;33051;-82
2023/05/09 03:14:46;;;;;;;55.90;28.75;;;;;;;-144.85;100.00;61331.59;5071674;28;30939;-82
2023/05/09 03:17:19;;;;;;;48.92;27.65;;;;;;;-144.85;100.00;61331.59;5073934;28;30732;-81
2023/05/09 03:19:47;;;;;;;50.45;27.13;;;;;;;-144.85;100.00;61331.59;5059316;28;32319;-82
2023/05/09 03:22:15;;;;;;;49.58;27.65;;;;;;;-144.85;100.00;61331.59;5062038;28;33474;-82
2023/05/09 03:24:51;;;;;;;48.15;28.38;;;;;;;-144.85;100.00;61331.59;5062069;28;31095;-83
2023/05/09 03:27:18;;;;;;;49.58;26.85;;;;;;;-144.85;100.00;61331.59;5060328;28;30744;-82
2023/05/09 03:29:47;;;;;;;51.40;26.67;;;;;;;-144.85;100.00;61331.59;5059373;28;30901;-82
2023/05/09 03:32:15;;;;;;;53.03;28.17;;;;;;;-144.85;100.00;61331.59;5055290;28;32586;-82
2023/05/09 03:34:42;;;;;;;53.58;28.17;;;;;;;-144.85;100.00;61331.59;5051307;28;31315;-82
2023/05/09 03:37:10;;;;;;;50.30;26.88;;;;;;;-144.85;100.00;61331.59;5048679;28;31540;-81
2023/05/09 03:39:39;;;;;;;53.08;27.33;;;;;;;-144.85;100.00;61331.59;5061848;28;30856;-83
2023/05/09 03:42:06;;;;;;;57.42;28.17;;;;;;;-144.85;100.00;61331.59;5079616;28;32304;-83
2023/05/09 03:44:34;;;;;;;50.55;25.95;;;;;;;-144.85;100.00;61331.59;5061292;28;31134;-83
2023/05/09 03:47:01;;;;;;;50.53;27.38;;;;;;;-144.85;100.00;61331.59;5076651;28;31728;-83
2023/05/09 03:49:35;;;;;;;45.45;25.40;;;;;;;-144.85;100.00;61331.59;5061749;28;30933;-83
2023/05/09 03:52:02;;;;;;;47.67;27.00;;;;;;;-144.85;100.00;61331.59;5060370;28;31582;-83
2023/05/09 03:54:30;;;;;;;46.33;26.40;;;;;;;-144.85;100.00;61331.59;5047370;28;31428;-84
2023/05/09 03:56:57;;;;;;;50.35;26.00;;;;;;;-144.85;100.00;61331.59;5059824;28;31125;-82
2023/05/09 03:59:24;;;;;;;50.67;27.25;;;;;;;-144.85;100.00;61331.59;5079252;28;31566;-81
2023/05/09 04:01:52;;;;;;;44.47;26.27;;;;;;;-144.85;100.00;61331.59;5043928;28;31563;-82
2023/05/09 04:04:22;;;;;;;49.10;26.20;;;;;;;-144.85;100.00;61331.59;5042902;28;33283;-82
2023/05/09 04:06:49;;;;;;;45.47;26.23;;;;;;;-144.85;100.00;61331.59;5064146;28;32189;-83
2023/05/09 04:09:17;;;;;;;47.85;25.77;;;;;;;-144.85;100.00;61331.59;5060678;28;32781;-83
2023/05/09 04:11:46;;;;;;;47.60;26.05;;;;;;;-144.85;100.00;61331.59;5066705;28;32584;-83
2023/05/09 04:14:14;;;;;;;44.15;26.52;;;;;;;-144.85;100.00;61331.59;5063232;28;31360;-83
2023/05/09 04:16:42;;;;;;;44.20;25.38;;;;;;;-144.85;100.00;61331.59;5047067;28;30968;-82
2023/05/09 04:19:09;;;;;;;45.58;26.08;;;;;;;-144.85;100.00;61331.59;5045530;28;30822;-83
2023/05/09 04:21:37;;;;;;;43.25;24.67;;;;;;;-144.85;100.00;61331.59;5060953;28;32014;-81
2023/05/09 04:24:05;;;;;;;40.85;25.10;;;;;;;-144.85;100.00;61331.59;5061254;28;31375;-81
2023/05/09 04:26:38;;;;;;;41.17;23.50;;;;;;;-144.85;100.00;61331.59;5061825;28;32165;-82
2023/05/09 04:29:09;;;;;;;33.97;16.27;;;;;;;-144.85;100.00;61331.59;5064562;28;30478;-82
2023/05/09 04:31:37;;;;;;;43.00;24.25;;;;;;;-144.85;100.00;61331.59;5058800;28;31435;-82
2023/05/09 04:34:06;;;;;;;41.05;24.13;;;;;;;-144.85;100.00;61331.59;5058215;28;30990;-81
2023/05/09 04:36:34;;;;;;;41.95;24.02;;;;;;;-144.85;100.00;61331.59;5058551;28;30970;-82
2023/05/09 04:39:03;;;;;;;38.80;24.33;;;;;;;-144.85;100.00;61331.59;5059529;28;31823;-83
2023/05/09 04:41:31;;;;;;;45.28;24.42;;;;;;;-144.85;100.00;61331.59;5058603;28;32930;-83
2023/05/09 04:43:58;;;;;;;41.72;25.15;;;;;;;-144.85;100.00;61331.59;5059655;28;32322;-83
2023/05/09 04:46:26;;;;;;;43.17;24.50;;;;;;;-144.85;100.00;61331.59;5059067;28;30682;-80
2023/05/09 04:48:54;;;;;;;41.80;24.33;;;;;;;-144.85;100.00;61331.59;5058694;28;30712;-83
2023/05/09 04:51:21;;;;;;;43.78;23.60;;;;;;;-144.85;100.00;61331.59;5057156;28;31672;-83
2023/05/09 04:53:50;;;;;;;39.10;23.65;;;;;;;-144.85;100.00;61331.59;5077914;28;32353;-83
2023/05/09 04:56:20;;;;;;;39.08;23.65;;;;;;;-144.85;100.00;61331.59;5059071;28;30636;-82
2023/05/09 04:58:48;;;;;;;39.10;23.23;;;;;;;-144.85;100.00;61331.59;5059035;28;30332;-83
2023/05/09 05:01:15;;;;;;;39.45;23.60;;;;;;;-144.85;100.00;61331.59;5058430;28;31690;-83
2023/05/09 05:03:45;;;;;;;37.22;21.67;;;;;;;-144.85;100.00;61331.59;5061484;28;31287;-81
2023/05/09 05:06:12;;;;;;;41.83;23.13;;;;;;;-144.85;100.00;61331.59;5059119;28;32419;-82
2023/05/09 05:08:41;;;;;;;38.28;22.52;;;;;;;-144.85;100.00;61331.59;5058911;28;31851;-83
2023/05/09 05:11:09;;;;;;;40.90;22.50;;;;;;;-144.85;100.00;61331.59;5061330;28;31275;-82
2023/05/09 05:13:36;;;;;;;35.72;21.52;;;;;;;-144.85;100.00;61331.59;5044968;28;31217;-82
2023/05/09 05:16:04;;;;;;;39.63;21.58;;;;;;;-144.85;100.00;61331.59;5075252;28;31067;-82
2023/05/09 05:18:32;;;;;;;35.00;21.60;;;;;;;-144.85;100.00;61331.59;5066022;28;30688;-83
2023/05/09 05:20:59;;;;;;;37.15;22.23;;;;;;;-144.85;100.00;61331.59;5065907;28;33902;-82
2023/05/09 05:23:26;;;;;;;33.47;20.77;;;;;;;-144.85;100.00;61331.59;5059056;28;31434;-82
2023/05/09 05:25:54;;;;;;;35.60;21.88;;;;;;;-144.85;100.00;61331.59;5061171;28;32054;-83
2023/05/09 05:28:22;;;;;;;36.75;21.42;;;;;;;-144.85;100.00;61331.59;5071943;28;29893;-82
2023/05/09 05:30:49;;;;;;;34.85;20.63;;;;;;;-144.85;100.00;61331.59;5044481;28;31563;-83
2023/05/09 05:33:16;;;;;;;30.95;19.98;;;;;;;-144.85;100.00;61331.59;5061562;28;32271;-80
2023/05/09 05:35:44;;;;;;;33.17;20.23;;;;;;;-144.85;100.00;61331.59;5048071;28;32222;-84
2023/05/09 05:38:12;;;;;;;30.63;20.38;;;;;;;-144.85;100.00;61331.59;5061000;28;30636;-83
2023/05/09 05:40:39;;;;;;;29.77;18.88;;;;;;;-144.85;100.00;61331.59;5060525;28;32638;-82
2023/05/09 05:43:07;;;;;;;29.20;19.23;;;;;;;-144.85;100.00;61331.59;5045012;28;31032;-82
2023/05/09 05:45:36;;;;;;;28.02;18.67;;;;;;;-144.85;100.00;61331.59;5059635;28;31428;-82
2023/05/09 05:48:06;;;;;;;30.48;18.15;;;;;;;-144.85;100.00;61331.59;5060084;28;30615;-82
2023/05/09 05:50:35;;;;;;;29.17;18.33;;;;;;;-144.85;100.00;61331.59;5080007;28;31559;-82
2023/05/09 05:53:03;;;;;;;28.38;18.27;;;;;;;-144.85;100.00;61331.59;5051699;28;32483;-83
2023/05/09 05:55:30;;;;;;;26.30;18.38;;;;;;;-144.85;100.00;61331.59;5084656;28;32715;-82
2023/05/09 05:57:57;;;;;;;27.98;18.50;;;;;;;-144.85;100.00;61331.59;5064526;28;31495;-82
2023/05/09 06:00:24;;;;;;;26.00;18.25;;;;;;;-144.85;100.00;61331.59;5065360;28;31479;-83
2023/05/09 06:02:59;;;;;;;27.35;17.30;;;;;;;-144.85;100.00;61331.59;5065485;28;30993;-83
2023/05/09 06:05:46;;;;;;;27.67;18.90;;;;;;;-144.85;100.00;61331.59;5064884;28;31397;-83
2023/05/09 06:08:13;;;;;;;26.90;17.65;;;;;;;-144.85;100.00;61331.59;5066575;28;30724;-82
2023/05/09 06:10:40;;;;;;;32.53;18.70;;;;;;;-144.85;100.00;61331.59;5065172;28;31739;-83
2023/05/09 06:13:08;;;;;;;27.02;18.95;;;;;;;-144.85;100.00;61331.59;5065596;28;31168;-82
2023/05/09 06:15:43;;;;;;;27.15;18.40;;;;;;;-144.85;100.00;61331.59;5063644;28;31240;-80
2023/05/09 06:18:10;;;;;;;25.50;18.23;;;;;;;-144.85;100.00;61331.59;5081179;28;31290;-81
2023/05/09 06:20:37;;;;;;;25.60;13.43;;;;;;;-144.85;100.00;61331.59;5063663;28;32886;-81
2023/05/09 06:23:04;;;;;;;28.70;18.95;;;;;;;-144.85;100.00;61331.59;5062661;28;32967;-82
2023/05/09 06:25:31;;;;;;;26.70;18.38;;;;;;;-144.85;100.00;61331.59;5080344;28;32824;-82
2023/05/09 06:27:59;;;;;;;28.25;18.92;;;;;;;-144.85;100.00;61331.59;5072059;28;30594;-82
2023/05/09 06:30:26;;;;;;;28.90;19.23;;;;;;;-144.85;100.00;61331.59;5066097;28;32035;-82
2023/05/09 06:32:54;;;;;;;32.25;20.23;;;;;;;-144.85;100.00;61331.59;5061042;28;32482;-84
2023/05/09 06:35:21;;;;;;;30.20;20.38;;;;;;;-144.85;100.00;61331.59;5062336;28;31736;-83
2023/05/09 06:37:49;;;;;;;30.63;20.35;;;;;;;-144.85;100.00;61331.59;5058156;28;30483;-83
2023/05/09 06:40:16;;;;;;;28.90;20.80;;;;;;;-144.85;100.00;61331.59;5061726;28;32725;-81
2023/05/09 06:42:43;;;;;;;28.38;19.98;;;;;;;-144.85;100.00;61331.59;5059181;28;30181;-82
2023/05/09 06:45:11;;;;;;;28.92;18.95;;;;;;;-144.85;100.00;61331.59;5079583;28;32194;-82
2023/05/09 06:47:38;;;;;;;27.77;19.15;;;;;;;-144.85;100.00;61331.59;5045174;28;30611;-83
2023/05/09 06:50:06;;;;;;;30.00;19.80;;;;;;;-144.85;100.00;61331.59;5061070;28;31288;-83
2023/05/09 06:52:33;;;;;;;28.05;19.08;;;;;;;-144.85;100.00;61331.59;5044251;28;32250;-82
2023/05/09 06:55:01;;;;;;;27.63;18.65;;;;;;;-144.85;100.00;61331.59;5079708;28;31975;-83
2023/05/09 06:57:28;;;;;;;29.65;18.42;;;;;;;-144.85;100.00;61331.59;5063957;28;30961;-83
2023/05/09 06:59:55;;;;;;;32.28;18.70;;;;;;;-144.85;100.00;61331.59;5078975;28;32265;-83
2023/05/09 07:02:22;;;;;;;25.63;17.20;;;;;;;-144.85;100.00;61331.59;5084228;28;32116;-83
2023/05/09 07:04:49;;;;;;;26.75;17.33;;;;;;;-144.85;100.00;61331.59;5065072;28;32105;-82
2023/05/09 07:07:17;;;;;;;25.10;16.95;;;;;;;-144.85;100.00;61331.59;5065794;28;31556;-82
2023/05/09 07:09:44;;;;;;;25.05;17.02;;;;;;;-144.85;100.00;61331.59;5065357;28;32038;-82
2023/05/09 07:12:11;;;;;;;25.50;16.88;;;;;;;-144.85;100.00;61331.59;5066847;28;31258;-82
2023/05/09 07:14:40;;;;;;;24.98;17.75;;;;;;;-144.85;100.00;61331.59;5061503;28;32717;-83
2023/05/09 07:17:07;;;;;;;25.80;17.40;;;;;;;-144.85;100.00;61331.59;5044736;28;30633;-83
2023/05/09 07:19:50;;;;;;;27.42;17.67;;;;;;;-144.85;100.00;61331.59;5055003;28;31293;-83
2023/05/09 07:22:17;;;;;;;25.55;17.13;;;;;;;-144.85;100.00;61331.59;5066046;28;30743;-82
2023/05/09 07:24:45;;;;;;;25.45;17.27;;;;;;;-144.85;100.00;61331.59;5084826;28;32458;-82
2023/05/09 07:27:12;;;;;;;22.20;15.85;;;;;;;-144.85;100.00;61331.59;5067291;28;30521;-81
2023/05/09 07:29:39;;;;;;;21.73;15.63;;;;;;;-144.85;100.00;61331.59;5084766;28;32309;-82
2023/05/09 07:32:07;;;;;;;21.55;15.93;;;;;;;-144.85;100.00;61331.59;5069455;28;31578;-83
2023/05/09 07:34:34;;;;;;;22.50;15.18;;;;;;;-144.85;100.00;61331.59;5094113;28;32401;-83
2023/05/09 07:37:02;;;;;;;23.63;15.98;;;;;;;-144.85;100.00;61331.59;5072803;28;30370;-82
2023/05/09 07:39:29;;;;;;;21.45;15.63;;;;;;;-144.85;100.00;61331.59;5084751;28;32391;-83
2023/05/09 07:41:56;;;;;;;23.50;16.05;;;;;;;-144.85;100.00;61331.59;5066252;28;33081;-81
2023/05/09 07:44:23;;;;;;;22.20;15.15;;;;;;;-144.85;100.00;61331.59;5070312;28;32225;-82
2023/05/09 07:46:50;;;;;;;21.90;16.23;;;;;;;-144.85;100.00;61331.59;5058999;28;30372;-81
2023/05/09 07:49:17;;;;;;;22.42;15.98;;;;;;;-144.85;100.00;61331.59;5083316;28;33261;-83
2023/05/09 07:51:44;;;;;;;21.77;15.23;;;;;;;-144.85;100.00;61331.59;5075147;28;32217;-81
2023/05/09 07:54:12;;;;;;;19.52;14.60;;;;;;;-144.85;100.00;61331.59;5066611;28;32053;-83
2023/05/09 07:56:39;;;;;;;20.60;15.23;;;;;;;-144.85;100.00;61331.59;5083076;28;32105;-83
2023/05/09 07:59:06;;;;;;;21.77;15.48;;;;;;;-144.85;100.00;61331.59;5047804;28;31055;-82
2023/05/09 08:01:34;;;;;;;23.40;14.73;;;;;;;-144.85;100.00;61331.59;5063872;28;30843;-81
2023/05/09 08:04:01;;;;;;;20.77;16.05;;;;;;;-144.85;100.00;61331.59;5064466;28;30399;-82
2023/05/09 08:06:28;;;;;;;19.42;14.80;;;;;;;-144.85;100.00;61331.59;5065277;28;30327;-81
2023/05/09 08:08:55;;;;;;;20.63;15.20;;;;;;;-144.85;100.00;61331.59;5048747;28;31655;-81
2023/05/09 08:11:22;;;;;;;21.05;15.07;;;;;;;-144.85;100.00;61331.59;5083936;28;31874;-82
2023/05/09 08:13:50;;;;;;;22.08;14.55;;;;;;;-144.85;100.00;61331.59;5083072;28;32904;-82
2023/05/09 08:16:17;;;;;;;21.45;14.30;;;;;;;-144.85;100.00;61331.59;5066441;28;30667;-82
2023/05/09 08:18:44;;;;;;;16.50;12.65;;;;;;;-144.85;100.00;61331.59;5084588;28;31467;-82
2023/05/09 08:21:12;;;;;;;17.38;13.35;;;;;;;-144.85;100.00;61331.59;5066563;28;30917;-83
2023/05/09 08:23:40;;;;;;;18.45;12.57;;;;;;;-144.85;100.00;61331.59;5065940;28;31899;-81
2023/05/09 08:26:07;;;;;;;16.20;12.02;;;;;;;-144.85;100.00;61331.59;5065194;28;31367;-82
2023/05/09 08:28:34;;;;;;;15.68;12.55;;;;;;;-144.85;100.00;61331.59;5065212;28;32487;-82
2023/05/09 08:31:01;;;;;;;14.57;11.75;;;;;;;-144.85;100.00;61331.59;5072541;28;31293;-82
2023/05/09 08:33:28;;;;;;;16.73;11.07;;;;;;;-144.85;100.00;61331.59;5078937;28;31523;-82
2023/05/09 08:35:55;;;;;;;13.02;11.02;;;;;;;-144.85;100.00;61331.59;5061443;28;31217;-82
2023/05/09 08:38:25;;;;;;;14.02;11.02;;;;;;;-144.85;100.00;61331.59;5084828;28;33467;-82
2023/05/09 08:40:59;;;;;;;15.73;10.82;;;;;;;-144.85;100.00;61331.59;5060216;28;33537;-82
2023/05/09 08:43:27;;;;;;;15.48;11.20;;;;;;;-144.85;100.00;61331.59;5053820;28;31820;-83
2023/05/09 08:45:57;;;;;;;14.63;10.65;;;;;;;-144.85;100.00;61331.59;5065106;28;30128;-82
2023/05/09 08:48:27;;;;;;;13.90;10.82;;;;;;;-144.85;100.00;61331.59;5065652;28;30984;-84
2023/05/09 08:50:55;;;;;;;13.65;11.10;;;;;;;-144.85;100.00;61331.59;5065245;28;33240;-82
2023/05/09 08:53:22;;;;;;;14.52;10.73;;;;;;;-144.85;100.00;61331.59;5084165;28;32093;-82
2023/05/09 08:55:51;;;;;;;14.80;10.10;;;;;;;-144.85;100.00;61331.59;5065384;28;31929;-82
2023/05/09 08:58:18;;;;;;;13.30;9.65;;;;;;;-144.85;100.00;61331.59;5059685;28;31107;-84
2023/05/09 09:00:46;;;;;;;13.52;9.30;;;;;;;-144.85;100.00;61331.59;5083864;28;32437;-82
2023/05/09 09:03:14;;;;;;;12.52;9.50;;;;;;;-144.85;100.00;61331.59;5090025;28;31520;-83
2023/05/09 09:05:42;;;;;;;17.67;9.38;;;;;;;-144.85;100.00;61331.59;5063474;28;30333;-82
2023/05/09 09:08:09;;;;;;;11.80;9.05;;;;;;;-144.85;100.00;61331.59;5097234;28;32900;-82
2023/05/09 09:10:41;;;;;;;12.85;9.23;;;;;;;-144.85;100.00;61331.59;5064133;28;34357;-82
2023/05/09 09:13:11;;;;;;;8.77;7.22;;;;;;;-144.85;100.00;61331.59;5073850;28;31148;-81
2023/05/09 09:15:42;;;;;;;8.65;7.45;;;;;;;-144.85;100.00;61331.59;5083487;28;31516;-82
2023/05/09 09:18:21;;;;;;;9.15;6.63;;;;;;;-144.85;100.00;61331.59;5095818;28;32331;-81
2023/05/09 09:20:56;;;;;;;7.90;6.20;;;;;;;-144.85;100.00;61331.59;5092193;28;32729;-82
2023/05/09 09:23:25;;;;;;;7.00;5.85;;;;;;;-144.85;100.00;61331.59;5084590;28;32154;-82
2023/05/09 09:26:00;;;;;;;7.97;5.53;;;;;;;-144.85;100.00;61331.59;5072267;28;31404;-82
2023/05/09 09:28:27;;;;;;;;;;;;;;;-144.85;100.00;61331.59;5067134;28;32575;-82
2023/05/09 09:31:30;;;;;;;9.25;5.65;;;;;;;-144.85;100.00;61331.59;5082494;28;32456;-83
2023/05/09 09:34:01;;;;;;;6.38;5.30;;;;;;;-144.85;100.00;61331.59;5095638;28;32468;-82
2023/05/09 09:36:31;;;;;;;7.10;5.45;;;;;;;-144.85;100.00;61331.59;5093872;28;31854;-82
2023/05/09 09:38:59;;;;;;;8.93;6.15;;;;;;;-144.85;100.00;61331.59;5073408;28;33321;-82
2023/05/09 09:41:36;;;;;;;7.40;5.95;;;;;;;-144.85;100.00;61331.59;5066898;28;31482;-81
2023/05/09 09:44:11;;;;;;;8.02;5.80;;;;;;;-144.85;100.00;61331.59;5098350;28;32935;-83
2023/05/09 09:46:47;;;;;;;8.73;5.70;;;;;;;-144.85;100.00;61331.59;5092702;28;30954;-82
2023/05/09 09:49:17;;;;;;;8.52;6.07;;;;;;;-144.85;100.00;61331.59;5082371;28;31248;-82
2023/05/09 09:51:50;;;;;;;8.02;6.05;;;;;;;-144.85;100.00;61331.59;5069913;28;32369;-82
2023/05/09 09:54:17;;;;;;;9.10;5.88;;;;;;;-144.85;100.00;61331.59;5065532;28;30766;-83
2023/05/09 09:56:52;;;;;;;7.38;5.93;;;;;;;-144.85;100.00;61331.59;5081030;28;32416;-82
2023/05/09 09:59:21;;;;;;;8.00;6.15;;;;;;;-144.85;100.00;61331.59;5082302;28;33400;-82
2023/05/09 10:01:53;;;;;;;10.48;6.10;;;;;;;-144.85;100.00;61331.59;5055347;28;31160;-82
2023/05/09 10:04:21;;;;;;;7.60;5.32;;;;;;;-144.85;100.00;61331.59;5064872;28;31828;-81
2023/05/09 10:06:52;;;;;;;6.93;5.22;;;;;;;-144.85;100.00;61331.59;5065575;28;31346;-81
2023/05/09 10:09:21;;;;;;;8.10;5.05;;;;;;;-144.85;100.00;61331.59;5066570;28;33091;-82
2023/05/09 10:11:53;;;;;;;7.80;5.10;;;;;;;-144.85;100.00;61331.59;5064941;28;32143;-81
2023/05/09 10:14:23;;;;;;;7.45;5.35;;;;;;;-144.85;100.00;61331.59;5064266;28;32013;-80
2023/05/09 10:16:54;;;;;;;6.25;5.32;;;;;;;-144.85;100.00;61331.59;5066358;28;32912;-82
2023/05/09 10:19:22;;;;;;;8.90;5.40;;;;;;;-144.85;100.00;61331.59;5057279;28;31271;-81
2023/05/09 10:21:58;;;;;;;7.78;5.80;;;;;;;-144.85;100.00;61331.59;5065927;28;30653;-81
2023/05/09 10:24:50;;;;;;;6.97;5.50;;;;;;;-144.85;100.00;61331.59;5085640;28;32163;-81
2023/05/09 10:27:25;;;;;;;5.60;5.00;;;;;;;-144.85;100.00;61331.59;5050301;28;31662;-82
2023/05/09 10:30:23;;;;;;;8.65;5.35;;;;;;;-144.85;100.00;61331.59;5081489;28;32596;-82
2023/05/09 10:32:50;;;;;;;7.20;5.22;;;;;;;-144.85;100.00;61331.59;5053551;28;30899;-83
2023/05/09 10:35:32;;;;;;;9.20;5.15;;;;;;;-144.85;100.00;61331.59;5066808;28;32343;-82
2023/05/09 10:38:00;;;;;;;6.30;5.05;;;;;;;-144.85;100.00;61331.59;5069335;28;31377;-82
2023/05/09 10:40:28;;;;;;;7.70;4.78;;;;;;;-144.85;100.00;61331.59;5069811;28;31418;-82
2023/05/09 10:42:56;;;;;;;6.10;4.43;;;;;;;-144.85;100.00;61331.59;5078960;28;32048;-82
2023/05/09 10:45:23;;;;;;;4.95;4.25;;;;;;;-144.85;100.00;61331.59;5088771;28;31838;-82
2023/05/09 10:47:52;;;;;;;5.03;4.13;;;;;;;-144.85;100.00;61331.59;5062852;28;32717;-82
2023/05/09 10:50:20;;;;;;;6.30;4.28;;;;;;;-144.85;100.00;61331.59;5054118;28;32696;-84
2023/05/09 10:53:02;;;;;;;4.55;3.10;;;;;;;-144.85;100.00;61331.59;5045667;28;30837;-84
2023/05/09 10:55:36;;;;;;;3.33;2.70;;;;;;;-144.85;100.00;61331.59;5071012;28;31975;-86
2023/05/09 10:58:20;;;;;;;3.63;2.90;;;;;;;-144.85;100.00;61331.59;5045493;28;30382;-83
2023/05/09 11:00:49;;;;;;;3.22;2.85;;;;;;;-144.85;100.00;61331.59;5058394;28;32267;-83
2023/05/09 11:03:20;;;;;;;4.22;3.10;;;;;;;-144.85;100.00;61331.59;5062279;28;33188;-80
2023/05/09 11:05:50;;;;;;;4.72;3.08;;;;;;;-144.85;100.00;61331.59;5077483;28;31561;-84
2023/05/09 11:08:28;;;;;;;5.10;3.25;;;;;;;-144.85;100.00;61331.59;5051934;28;31611;-84